Bei Facebook empfehlenBei Twitter postenGoogle plusPinterest

Das Wetter im Erzgebirge am 28.01.2017

Wetter und Klima am 28.01.2017 Holzhau im Erzgebirge (630m ü.NN)
Letzte gemessene Temperatur und Uhrzeit der Messung23:45:00 Uhr-9.60 °C
Temperatur (Maximum / Höchstwert) und Uhrzeit der Messung14:15:00 Uhr-4.70 °C
Temperatur (Minimum / Tiefstwert) und Uhrzeit der Messung20:30:00-9.70 °C
Errechneter Absolutwert der Temperaturschwankungen zwischen Tmin und Tmax des Tages5.00 K
Errechnete Tagesmitteltemperatur-8.05313 °C
Gesamt - Niederschlag des Tages (in flüssiger Form)0.00 Liter / m²
Luftdruck (Maximum / Höchstwert) und Zeitpunkt der Messung23:30:00 Uhr1017.50 hPa
Luftdruck (Minimum / Tiefstwert) und Zeitpunkt der Messung04:30:00 Uhr1015.20 hPa
Errechneter Absolutwert der Luftdruckschwankungen des Tages2.30 hPa
Höchste gemessene Windgeschwindigkeit und Uhrzeit der Messung07:45:00 Uhr20.16 km/h
Errechnete Windhäufigkeit in Relation zu den Messwerten des Tages58.33333 %
Niedrigste Windkühle (Windchill) und Zeitpunkt der Messung07:45:00 Uhr-17.50 °C
Taupunkt (Maximum / Höchstwert) und Uhrzeit der Messung13:30:00 Uhr-8.40 °C
Taupunkt (Minimum / Tiefstwert) und Uhrzeit der Messung22:30:00-11.70 °C
Anzahl der automatisch eingelesenen Messwerte 96

Detaillierte Wetter- und Klima- Messwerte für den 28.01.2017 in Holzhau im Erzgebirge (630m ü.NN)
ZeitTemperaturLuftdruckRel. LuftfeuchteWindWindrichtungWindchillTaupunktNiederschlag l/m²
23:45:00-9.60 °C1017.40 hPa87.00 %2.52 km/hSW-9.60 °C-11.60 °C 
23:30:00-9.60 °C1017.50 hPa87.00 %1.80 km/hSSO-9.60 °C-11.60 °C 
23:15:00-9.50 °C1017.40 hPa87.00 %5.40 km/hS-12.60 °C-11.50 °C 
23:00:00-9.60 °C1017.30 hPa87.00 %7.20 km/hS-13.70 °C-11.60 °C 
22:45:00-9.60 °C1017.00 hPa87.00 %-11.60 °C 
22:30:00-9.60 °C1017.00 hPa86.00 %3.24 km/hSSO-9.60 °C-11.70 °C 
22:15:00-9.30 °C1017.10 hPa86.00 %6.12 km/hSSO-12.80 °C-11.40 °C 
22:00:00-9.20 °C1017.10 hPa86.00 %7.56 km/hSO-13.40 °C-11.30 °C 
21:45:00-9.40 °C1016.90 hPa87.00 %10.08 km/hSSO-14.60 °C-11.40 °C 
21:30:00-9.50 °C1016.90 hPa87.00 %9.72 km/hSO-14.60 °C-11.50 °C 
21:15:00-9.40 °C1017.00 hPa86.00 %8.64 km/hS-14.00 °C-11.50 °C 
21:00:00-9.20 °C1017.00 hPa87.00 %9.36 km/hSSO-14.10 °C-11.20 °C 
20:45:00-9.50 °C1016.80 hPa87.00 %11.16 km/hS-15.10 °C-11.50 °C 
20:30:00-9.70 °C1016.80 hPa87.00 %2.52 km/hS-9.70 °C-11.70 °C 
20:15:00-9.70 °C1016.80 hPa87.00 %3.24 km/hS-9.70 °C-11.70 °C 
20:00:00-9.60 °C1016.80 hPa87.00 %3.60 km/hSSO-9.60 °C-11.60 °C 
19:45:00-9.30 °C1016.70 hPa87.00 %-11.30 °C 
19:30:00-9.50 °C1016.60 hPa87.00 %3.96 km/hS-9.50 °C-11.50 °C 
19:15:00-9.40 °C1016.50 hPa87.00 %0.72 km/hSSW-9.40 °C-11.40 °C 
19:00:00-9.20 °C1016.50 hPa87.00 %-11.20 °C 
18:45:00-9.40 °C1016.50 hPa87.00 %-11.40 °C 
18:30:00-9.40 °C1016.30 hPa87.00 %4.68 km/hSSW-9.40 °C-11.40 °C 
18:15:00-9.50 °C1016.20 hPa86.00 %-11.60 °C 
18:00:00-9.20 °C1016.40 hPa86.00 %1.44 km/hS-9.20 °C-11.30 °C 
17:45:00-9.10 °C1016.50 hPa86.00 %3.24 km/hS-9.10 °C-11.20 °C 
17:30:00-9.10 °C1016.50 hPa86.00 %5.40 km/hS-12.20 °C-11.20 °C 
17:15:00-9.10 °C1016.50 hPa85.00 %-11.40 °C 
17:00:00-8.90 °C1016.10 hPa85.00 %7.20 km/hSSW-12.80 °C-11.20 °C 
16:45:00-8.60 °C1016.40 hPa84.00 %-11.10 °C 
16:30:00-8.20 °C1016.50 hPa83.00 %6.12 km/hS-11.50 °C-10.90 °C 
16:15:00-7.70 °C1016.40 hPa81.00 %-10.70 °C 
16:00:00-7.10 °C1016.10 hPa80.00 %7.92 km/hS-11.00 °C-10.30 °C 
15:45:00-6.40 °C1016.00 hPa79.00 %-9.80 °C 
15:30:00-5.90 °C1015.90 hPa78.00 %-9.50 °C 
15:15:00-5.50 °C1015.80 hPa78.00 %7.56 km/hSSW-9.00 °C-9.10 °C 
15:00:00-5.60 °C1015.80 hPa78.00 %8.64 km/hS-9.60 °C-9.20 °C 
14:45:00-5.10 °C1015.70 hPa77.00 %9.00 km/hSO-9.10 °C-8.90 °C 
14:30:00-4.90 °C1015.80 hPa77.00 %8.28 km/hS-8.60 °C-8.70 °C 
14:15:00-4.70 °C1015.70 hPa77.00 %-8.50 °C 
14:00:00-4.80 °C1015.70 hPa77.00 %3.24 km/hSSW-4.80 °C-8.60 °C 
13:45:00-4.90 °C1015.60 hPa78.00 %6.84 km/hSSO-8.00 °C-8.50 °C 
13:30:00-4.80 °C1015.80 hPa78.00 %3.24 km/hSSO-4.80 °C-8.40 °C 
13:15:00-5.10 °C1015.70 hPa79.00 %-8.50 °C 
13:00:00-5.10 °C1015.60 hPa79.00 %-8.50 °C 
12:45:00-5.40 °C1015.80 hPa80.00 %6.12 km/hSSW-8.30 °C-8.70 °C 
12:30:00-5.50 °C1016.00 hPa80.00 %3.24 km/hSSW-5.50 °C-8.70 °C 
12:15:00-5.40 °C1015.90 hPa79.00 %0.72 km/hS-5.40 °C-8.80 °C 
12:00:00-5.60 °C1016.10 hPa81.00 %8.28 km/hS-9.40 °C-8.70 °C 
11:45:00-5.60 °C1016.00 hPa81.00 %6.12 km/hSSW-8.50 °C-8.70 °C 
11:30:00-5.70 °C1016.00 hPa82.00 %-8.60 °C 
11:15:00-5.80 °C1016.20 hPa82.00 %1.44 km/hSSW-5.80 °C-8.70 °C 
11:00:00-6.10 °C1016.10 hPa84.00 %3.60 km/hS-6.10 °C-8.60 °C 
10:45:00-6.60 °C1016.00 hPa84.00 %-9.10 °C 
10:30:00-7.10 °C1016.00 hPa87.00 %4.68 km/hOSO-7.10 °C-9.10 °C 
10:15:00-7.60 °C1015.90 hPa88.00 %-9.40 °C 
10:00:00-8.20 °C1016.00 hPa89.00 %6.48 km/hSSO-11.70 °C-9.90 °C 
09:45:00-8.90 °C1015.90 hPa89.00 %-10.60 °C 
09:30:00-9.10 °C1016.00 hPa89.00 %7.56 km/hSSW-13.20 °C-10.80 °C 
09:15:00-9.20 °C1015.90 hPa89.00 %-10.90 °C 
09:00:00-9.50 °C1016.00 hPa89.00 %-11.20 °C 
08:45:00-9.60 °C1015.80 hPa89.00 %-11.30 °C 
08:30:00-9.60 °C1015.80 hPa89.00 %3.96 km/hS-9.60 °C-11.30 °C 
08:15:00-9.70 °C1015.50 hPa89.00 %-11.40 °C 
08:00:00-9.60 °C1015.70 hPa89.00 %3.24 km/hS-9.60 °C-11.30 °C 
07:45:00-9.70 °C1015.60 hPa89.00 %20.16 km/hSSW-17.50 °C-11.40 °C 
07:30:00-9.70 °C1015.50 hPa89.00 %5.40 km/hSSO-12.80 °C-11.40 °C 
07:15:00-9.60 °C1015.50 hPa89.00 %4.32 km/hS-9.60 °C-11.30 °C 
07:00:00-9.60 °C1015.50 hPa89.00 %-11.30 °C 
06:45:00-9.60 °C1015.60 hPa89.00 %5.04 km/hS-12.50 °C-11.30 °C 
06:30:00-9.60 °C1015.70 hPa89.00 %-11.30 °C 
06:15:00-9.50 °C1015.70 hPa89.00 %3.24 km/hSSO-9.50 °C-11.20 °C 
06:00:00-9.50 °C1015.50 hPa88.00 %-11.30 °C 
05:45:00-9.40 °C1015.50 hPa88.00 %5.40 km/hS-12.50 °C-11.20 °C 
05:30:00-9.20 °C1015.60 hPa88.00 %-11.00 °C 
05:15:00-9.10 °C1015.60 hPa88.00 %4.68 km/hSSO-9.10 °C-10.90 °C 
05:00:00-9.00 °C1015.60 hPa88.00 %-10.80 °C 
04:45:00-9.00 °C1015.50 hPa88.00 %11.16 km/hS-14.40 °C-10.80 °C 
04:30:00-8.90 °C1015.20 hPa88.00 %8.28 km/hSSO-13.30 °C-10.70 °C 
04:15:00-8.80 °C1015.60 hPa87.00 %-10.80 °C 
04:00:00-8.70 °C1015.60 hPa88.00 %-10.50 °C 
03:45:00-8.50 °C1015.50 hPa87.00 %2.52 km/hS-8.50 °C-10.50 °C 
03:30:00-8.40 °C1015.60 hPa87.00 %-10.40 °C 
03:15:00-8.10 °C1015.70 hPa86.00 %-10.30 °C 
03:00:00-7.60 °C1015.70 hPa86.00 %-9.80 °C 
02:45:00-7.40 °C1015.60 hPa86.00 %-9.60 °C 
02:30:00-7.60 °C1015.70 hPa86.00 %1.44 km/hONO-7.60 °C-9.80 °C 
02:15:00-7.70 °C1015.70 hPa86.00 %-9.90 °C 
02:00:00-7.70 °C1015.90 hPa85.00 %2.52 km/hONO-7.70 °C-10.00 °C 
01:45:00-7.50 °C1015.90 hPa85.00 %-9.80 °C 
01:30:00-7.20 °C1015.80 hPa84.00 %-9.70 °C 
01:15:00-7.00 °C1015.90 hPa84.00 %-9.50 °C 
01:00:00-6.80 °C1016.30 hPa84.00 %-9.30 °C 
00:45:00-6.60 °C1016.50 hPa83.00 %-9.30 °C 
00:30:00-6.40 °C1016.70 hPa83.00 %-9.10 °C 
00:15:00-6.20 °C1016.70 hPa84.00 %-8.70 °C 
00:00:00-6.20 °C1016.80 hPa84.00 %4.32 km/hSSW-6.20 °C-8.70 °C 

Permanenter Link zu dieser Seite: Wetter im Erzgebirge am 28.01.2017
Performance-Info: Die Erstellung der Seite / Statistik(en) / Tabelle(n) erforderte 5 Datenbankserver-Abfrage(n) und dauerte 113 Millisekunden. (Dieser Messwert ist von der Gesamt-Auslastung des Servers abhängig.)
Erzgebirge - Wetter | Erzgebirge - Wetter (Mobilgeräte) | Komplette Klimadatenbank